Alt de Penuelas Ii, Puerto Rico
Current Conditions -  °F | °C
As of 12:56 AM on Saturday 01 Nov 2014 (Local Time) from TJSJ Reporting Station
Clear Clear  
Wind Chill: 80°   Ceiling: Unl
Heat Index: 85°   Visibility: 10mi
Dew Point: 76°   Wind: 0mph
Humidity: 87%   Direction: NA
Pressure: 29.94"   Gusts: NA
Location:  18.0112°N, 66.3514°W
Report Text: TJSJ 010456Z 00000KT 10SM CLR 27/24 A2994 RMK AO2 SLP136 T02670244
Loading
Personal Weather Stations






























Interactive Weather Map
Tropical Storm Tracking
New forecast layout! Learn more

10-Day Weather Forecast

Advertisements
Track Severe Weather on mobile